Estación Meteorológica Peña el Pijo (Robertgarden) [ 04/25/18 03:00:33 CEST ]

Fecha Hora Presion(HPa) Temp (°C) Humedad % Rocio (°C) Viento ( m/s) Direccion Lluvia 1Hora(mm) Lluvia 24H(mm) LLuvia Total(mm)
2017-Nov-26 01:01:44 1012.300 10.9 51 1.2         1468.01
2017-Nov-26 02:04:48 1012.800 10.5 51 0.8         1468.01
2017-Nov-26 03:03:49 1012.900 8.2 55 -0.4         1468.01
2017-Nov-26 04:01:52 1013.200 6.3 62 -0.5         1468.01
2017-Nov-26 05:01:54 1013.400 4.8 67 -0.8         1468.01
2017-Nov-26 06:01:42 1013.700 3.3 71 -1.4         1468.01
2017-Nov-26 07:02:04 1013.900 2.1 74 -2.1         1468.01
2017-Nov-26 08:01:37 1014.700 1.3 75 -2.7         1468.01
2017-Nov-26 09:01:49 1015.500 2.1 77 -1.5         1468.01
2017-Nov-26 10:02:08 1016.000 9.6 73 5.0         1468.01
2017-Nov-26 11:01:55 1016.500 13.9 57 5.5         1468.01
2017-Nov-26 12:01:36 1016.100 15.4 50 5.1         1468.01
2017-Nov-26 13:01:40 1015.700 15.5 47 4.2         1468.01
2017-Nov-26 14:01:48 1015.000 17.7 39 3.5         1468.01
2017-Nov-26 15:01:37 1014.800 18.0 39 3.8         1468.01
2017-Nov-26 16:01:41 1014.900 16.6 38 2.1 0.7 SE     1468.01
2017-Nov-26 17:01:43 1015.300 14.2 41 1.1         1468.01
2017-Nov-26 18:01:53 1016.100 10.9 51 1.2         1468.01
2017-Nov-26 19:01:44 1016.500 7.8 56 -0.5         1468.01
2017-Nov-26 20:01:45 1017.400 4.7 63 -1.8         1468.01
2017-Nov-26 21:01:40 1017.500 2.9 68 -2.4         1468.01
2017-Nov-26 22:01:52 1017.700 2.2 71 -2.5         1468.01
2017-Nov-26 23:01:48 1017.100 1.3 73 -3.1         1468.01

Temperatura Máxima:18°    Temperatura Mínima:
Presión Máxima:1017.700 Hpa    Presión Mínima:1012.300 Hpa


Volver